createdAt,value
2019-03-05T00:01:17.867Z,6.84
2019-03-05T00:03:46.411Z,6.88
2019-03-05T00:06:14.979Z,6.89
2019-03-05T00:08:43.621Z,6.87
2019-03-05T00:11:12.084Z,6.87
2019-03-05T00:13:40.626Z,6.87
2019-03-05T00:16:09.247Z,6.88
2019-03-05T00:18:37.831Z,6.87
2019-03-05T00:21:06.436Z,6.88
2019-03-05T00:23:50.063Z,6.91
2019-03-05T00:26:21.783Z,6.94
2019-03-05T00:29:15.930Z,6.96
2019-03-05T00:31:48.729Z,7.00
2019-03-05T00:34:32.197Z,6.99
2019-03-05T00:37:03.828Z,7.05
2019-03-05T00:39:41.421Z,7.04
2019-03-05T00:42:46.113Z,7.05
2019-03-05T00:45:23.423Z,7.04
2019-03-05T00:48:00.992Z,7.01
2019-03-05T00:50:35.478Z,7.05
2019-03-05T00:53:18.914Z,7.05
2019-03-05T00:55:56.451Z,7.06
2019-03-05T00:58:28.647Z,7.09
2019-03-05T01:01:11.901Z,7.08
2019-03-05T01:03:43.539Z,7.10
2019-03-05T01:06:16.955Z,7.09
2019-03-05T01:08:45.774Z,7.14
2019-03-05T01:11:14.888Z,7.16
2019-03-05T01:13:43.658Z,7.15
2019-03-05T01:16:13.871Z,7.13
2019-03-05T01:18:42.619Z,7.16
2019-03-05T01:21:11.321Z,7.18
2019-03-05T01:23:39.942Z,7.16
2019-03-05T01:26:08.822Z,7.14
2019-03-05T01:28:37.409Z,7.10
2019-03-05T01:31:07.812Z,7.09
2019-03-05T01:33:56.071Z,7.09
2019-03-05T01:36:26.206Z,7.05
2019-03-05T01:39:02.162Z,7.00
2019-03-05T01:41:31.186Z,7.02
2019-03-05T01:44:02.445Z,6.93
2019-03-05T01:46:30.983Z,7.03
2019-03-05T01:48:59.608Z,6.93
2019-03-05T01:51:28.150Z,6.89
2019-03-05T01:53:56.777Z,6.90
2019-03-05T01:56:25.295Z,6.88
2019-03-05T01:58:53.929Z,6.85
2019-03-05T02:01:22.790Z,6.82
2019-03-05T02:03:51.362Z,6.82
2019-03-05T02:06:20.984Z,6.77
2019-03-05T02:08:49.531Z,6.76
2019-03-05T02:11:18.162Z,6.73
2019-03-05T02:13:46.768Z,6.74
2019-03-05T02:16:15.297Z,6.70
2019-03-05T02:18:43.944Z,6.71
2019-03-05T02:21:12.531Z,6.68
2019-03-05T02:23:44.138Z,6.65
2019-03-05T02:26:18.377Z,6.60
2019-03-05T02:28:55.552Z,6.52
2019-03-05T02:31:59.879Z,6.49
2019-03-05T02:34:40.065Z,6.44
2019-03-05T02:37:23.720Z,6.34
2019-03-05T02:39:58.178Z,6.35
2019-03-05T02:42:47.667Z,6.35
2019-03-05T02:45:31.834Z,6.32
2019-03-05T02:48:06.336Z,6.25
2019-03-05T02:51:01.866Z,6.22
2019-03-05T02:53:39.419Z,6.20
2019-03-05T02:56:31.759Z,6.19
2019-03-05T02:58:59.146Z,6.20
2019-03-05T03:01:32.138Z,6.18
2019-03-05T03:04:08.010Z,6.17
2019-03-05T03:06:36.657Z,6.16
2019-03-05T03:09:25.877Z,6.19
2019-03-05T03:11:54.530Z,6.16
2019-03-05T03:14:23.107Z,6.18
2019-03-05T03:16:51.700Z,6.22
2019-03-05T03:19:20.589Z,6.27
2019-03-05T03:21:49.428Z,6.28
2019-03-05T03:24:17.951Z,6.31
2019-03-05T03:26:46.518Z,6.37
2019-03-05T03:29:15.150Z,6.40
2019-03-05T03:31:43.691Z,6.36
2019-03-05T03:34:12.312Z,6.38
2019-03-05T03:36:40.831Z,6.43
2019-03-05T03:39:09.569Z,6.50
2019-03-05T03:41:38.099Z,6.56
2019-03-05T03:44:06.618Z,6.55
2019-03-05T03:46:35.301Z,6.58
2019-03-05T03:49:03.904Z,6.62
2019-03-05T03:51:32.402Z,6.68
2019-03-05T03:54:00.936Z,6.74
2019-03-05T03:56:29.477Z,6.74
2019-03-05T03:58:58.003Z,6.80
2019-03-05T04:01:26.583Z,6.79
2019-03-05T04:03:55.157Z,6.77
2019-03-05T04:06:23.695Z,6.84
2019-03-05T04:08:52.286Z,6.81
2019-03-05T04:11:20.880Z,6.87
2019-03-05T04:13:49.523Z,6.85
2019-03-05T04:16:18.061Z,6.92
2019-03-05T04:18:46.627Z,6.87
2019-03-05T04:21:15.191Z,6.88
2019-03-05T04:23:43.680Z,6.83
2019-03-05T04:26:12.231Z,6.84
2019-03-05T04:28:40.804Z,6.90
2019-03-05T04:31:09.316Z,6.81
2019-03-05T04:33:38.082Z,6.82
2019-03-05T04:36:06.649Z,6.83
2019-03-05T04:38:35.167Z,6.79
2019-03-05T04:41:03.743Z,6.80
2019-03-05T04:43:32.201Z,6.77
2019-03-05T04:46:08.151Z,6.74
2019-03-05T04:48:36.811Z,6.77
2019-03-05T04:51:07.000Z,6.78
2019-03-05T04:53:35.533Z,6.74
2019-03-05T04:56:04.054Z,6.63
2019-03-05T04:58:32.656Z,6.67
2019-03-05T05:01:01.542Z,6.72
2019-03-05T05:03:30.315Z,6.69
2019-03-05T05:05:59.079Z,6.68
2019-03-05T05:08:27.711Z,6.62
2019-03-05T05:10:56.350Z,6.64
2019-03-05T05:13:24.946Z,6.61
2019-03-05T05:15:53.437Z,6.60
2019-03-05T05:18:22.013Z,6.62
2019-03-05T05:20:50.581Z,6.57
2019-03-05T05:23:19.188Z,6.58
2019-03-05T05:25:48.135Z,6.60
2019-03-05T05:28:16.902Z,6.66
2019-03-05T05:30:45.405Z,6.62
2019-03-05T05:33:14.608Z,6.65
2019-03-05T05:35:43.429Z,6.60
2019-03-05T05:38:12.013Z,6.59
2019-03-05T05:40:45.446Z,6.57
2019-03-05T05:43:19.425Z,6.53
2019-03-05T05:45:50.152Z,6.62
2019-03-05T05:48:18.854Z,6.56
2019-03-05T05:50:47.584Z,6.54
2019-03-05T05:53:16.255Z,6.54
2019-03-05T05:55:44.753Z,6.55
2019-03-05T05:58:13.415Z,6.54
2019-03-05T06:00:43.530Z,6.57
2019-03-05T06:03:12.385Z,6.60
2019-03-05T06:05:41.012Z,6.54
2019-03-05T06:08:09.860Z,6.53
2019-03-05T06:10:38.789Z,6.54
2019-03-05T06:13:07.432Z,6.53
2019-03-05T06:15:36.009Z,6.60
2019-03-05T06:18:04.732Z,6.60
2019-03-05T06:20:33.220Z,6.62
2019-03-05T06:23:01.814Z,6.64
2019-03-05T06:25:30.420Z,6.66
2019-03-05T06:27:59.128Z,6.63
2019-03-05T06:30:30.665Z,6.58
2019-03-05T06:32:59.589Z,6.63
2019-03-05T06:35:28.236Z,6.60
2019-03-05T06:37:56.909Z,6.67
2019-03-05T06:40:27.144Z,6.65
2019-03-05T06:42:55.808Z,6.67
2019-03-05T06:45:24.373Z,6.76
2019-03-05T06:47:53.215Z,6.73
2019-03-05T06:50:23.236Z,6.77
2019-03-05T06:52:52.079Z,6.79
2019-03-05T06:55:20.688Z,6.71
2019-03-05T06:57:49.250Z,6.73
2019-03-05T07:00:38.858Z,6.77
2019-03-05T07:03:09.079Z,6.90
2019-03-05T07:06:13.296Z,6.88
2019-03-05T07:08:44.991Z,6.82
2019-03-05T07:11:37.495Z,6.80
2019-03-05T07:14:11.715Z,6.81
2019-03-05T07:16:55.534Z,6.83
2019-03-05T07:19:26.397Z,6.91
2019-03-05T07:21:58.032Z,6.96
2019-03-05T07:24:44.884Z,6.96
2019-03-05T07:27:15.668Z,6.99
2019-03-05T07:29:44.432Z,7.11
2019-03-05T07:32:13.037Z,7.12
2019-03-05T07:34:43.227Z,7.24
2019-03-05T07:37:12.814Z,7.35
2019-03-05T07:39:41.379Z,7.37
2019-03-05T07:42:10.151Z,7.54
2019-03-05T07:44:39.143Z,7.68
2019-03-05T07:47:07.757Z,7.74
2019-03-05T07:49:43.830Z,7.70
2019-03-05T07:52:07.132Z,7.64
2019-03-05T07:54:35.836Z,7.63
2019-03-05T07:57:04.524Z,7.59
2019-03-05T07:59:33.183Z,7.69
2019-03-05T08:02:01.967Z,7.88
2019-03-05T08:04:30.521Z,7.87
2019-03-05T08:06:59.066Z,7.92
2019-03-05T08:09:32.204Z,8.00
2019-03-05T08:12:13.002Z,8.10
2019-03-05T08:14:50.097Z,8.11
2019-03-05T08:17:19.008Z,8.03
2019-03-05T08:19:47.545Z,8.14
2019-03-05T08:22:16.148Z,7.93
2019-03-05T08:24:45.810Z,7.80
2019-03-05T08:27:14.395Z,7.79
2019-03-05T08:29:42.970Z,7.90
2019-03-05T08:32:11.604Z,7.87
2019-03-05T08:34:43.872Z,7.85
2019-03-05T08:37:13.595Z,7.55
2019-03-05T08:39:42.578Z,7.52
2019-03-05T08:42:11.435Z,7.72
2019-03-05T08:44:49.917Z,7.77
2019-03-05T08:47:10.381Z,7.76
2019-03-05T08:49:39.006Z,7.84
2019-03-05T08:52:07.697Z,8.14
2019-03-05T08:54:36.873Z,8.29
2019-03-05T08:57:06.224Z,8.38
2019-03-05T08:59:38.703Z,8.33
2019-03-05T09:02:07.354Z,8.17
2019-03-05T09:04:35.905Z,8.32
2019-03-05T09:07:04.452Z,8.32
2019-03-05T09:12:16.630Z,8.58
2019-03-05T09:14:45.314Z,8.70
2019-03-05T09:17:14.102Z,8.62
2019-03-05T09:19:42.726Z,8.46
2019-03-05T09:22:11.286Z,8.26
2019-03-05T09:24:39.855Z,8.24
2019-03-05T09:27:08.412Z,8.03
2019-03-05T09:29:37.026Z,8.20
2019-03-05T09:32:05.938Z,8.29
2019-03-05T09:34:34.498Z,8.24
2019-03-05T09:37:03.362Z,8.14
2019-03-05T09:39:32.035Z,8.14
2019-03-05T09:42:00.619Z,8.34
2019-03-05T09:44:29.241Z,8.55
2019-03-05T09:46:57.797Z,8.74
2019-03-05T09:49:26.473Z,8.37
2019-03-05T09:51:55.085Z,8.27
2019-03-05T09:54:23.783Z,8.28
2019-03-05T09:56:52.430Z,8.23
2019-03-05T09:59:21.120Z,8.16
2019-03-05T10:01:51.539Z,8.18
2019-03-05T10:04:20.084Z,8.20
2019-03-05T10:06:49.035Z,7.93
2019-03-05T10:09:17.656Z,8.01
2019-03-05T10:11:46.289Z,8.17
2019-03-05T10:14:14.925Z,8.39
2019-03-05T10:16:43.564Z,8.48
2019-03-05T10:19:12.186Z,8.24
2019-03-05T10:21:46.217Z,8.53
2019-03-05T10:24:11.322Z,8.66
2019-03-05T10:26:40.231Z,8.76
2019-03-05T10:29:08.835Z,8.84
2019-03-05T10:31:37.405Z,9.14
2019-03-05T10:34:05.926Z,9.46
2019-03-05T10:36:34.602Z,9.95
2019-03-05T10:39:03.731Z,9.76
2019-03-05T10:41:32.296Z,10.17
2019-03-05T10:44:03.586Z,10.74
2019-03-05T10:46:32.171Z,11.33
2019-03-05T10:49:00.907Z,11.79
2019-03-05T10:51:29.499Z,11.12
2019-03-05T10:53:58.111Z,11.01
2019-03-05T10:56:26.699Z,11.51
2019-03-05T10:58:55.240Z,11.06
2019-03-05T11:01:23.843Z,10.82
2019-03-05T11:03:52.581Z,10.83
2019-03-05T11:06:21.127Z,11.03
2019-03-05T11:08:50.580Z,10.78
2019-03-05T11:11:19.124Z,10.23
2019-03-05T11:13:47.809Z,10.02
2019-03-05T11:16:16.370Z,10.07
2019-03-05T11:18:44.884Z,9.49
2019-03-05T11:21:13.453Z,9.26
2019-03-05T11:23:42.091Z,9.04
2019-03-05T11:26:10.598Z,8.96
2019-03-05T11:28:39.049Z,9.13
2019-03-05T11:31:08.352Z,9.30
2019-03-05T11:33:36.989Z,9.69
2019-03-05T11:36:06.126Z,9.81
2019-03-05T11:38:34.868Z,9.38
2019-03-05T11:41:03.648Z,9.22
2019-03-05T11:43:32.425Z,9.18
2019-03-05T11:46:01.057Z,9.16
2019-03-05T11:48:29.495Z,9.19
2019-03-05T11:50:58.045Z,9.10
2019-03-05T11:53:26.624Z,8.95
2019-03-05T11:55:58.005Z,8.84
2019-03-05T11:58:26.626Z,8.87
2019-03-05T12:01:02.924Z,8.94
2019-03-05T12:03:31.476Z,8.91
2019-03-05T12:06:00.013Z,8.88
2019-03-05T12:08:28.638Z,8.77
2019-03-05T12:10:57.249Z,8.79
2019-03-05T12:13:26.235Z,8.85
2019-03-05T12:15:54.848Z,8.99
2019-03-05T12:18:25.370Z,8.98
2019-03-05T12:20:53.974Z,8.97
2019-03-05T12:23:22.607Z,9.04
2019-03-05T12:25:51.450Z,9.00
2019-03-05T12:28:20.069Z,9.16
2019-03-05T12:30:48.635Z,9.18
2019-03-05T12:33:17.509Z,8.88
2019-03-05T12:35:46.082Z,8.88
2019-03-05T12:38:14.886Z,8.83
2019-03-05T12:40:43.409Z,8.88
2019-03-05T12:43:12.058Z,8.78
2019-03-05T12:45:40.583Z,8.71
2019-03-05T12:48:09.244Z,9.49
2019-03-05T12:50:38.411Z,11.15
2019-03-05T12:53:07.267Z,12.55
2019-03-05T12:55:35.951Z,13.14
2019-03-05T12:58:04.701Z,12.79
2019-03-05T13:00:35.424Z,11.98
2019-03-05T13:03:04.305Z,11.86
2019-03-05T13:05:32.887Z,12.04
2019-03-05T13:08:01.672Z,11.47
2019-03-05T13:10:37.333Z,10.51
2019-03-05T13:13:05.814Z,10.23
2019-03-05T13:15:41.828Z,9.99
2019-03-05T13:18:10.426Z,9.77
2019-03-05T13:20:39.081Z,9.40
2019-03-05T13:23:10.728Z,9.21
2019-03-05T13:25:39.855Z,9.76
2019-03-05T13:28:08.480Z,10.39
2019-03-05T13:30:37.121Z,11.46
2019-03-05T13:33:05.657Z,11.70
2019-03-05T13:35:34.690Z,11.92
2019-03-05T13:38:09.792Z,11.79
2019-03-05T13:40:40.504Z,12.15
2019-03-05T13:43:08.830Z,12.10
2019-03-05T13:45:37.370Z,11.94
2019-03-05T13:48:41.986Z,12.23
2019-03-05T13:51:23.155Z,11.45
2019-03-05T13:54:10.640Z,10.93
2019-03-05T13:56:51.114Z,10.38
2019-03-05T13:59:44.916Z,10.02
2019-03-05T14:02:17.473Z,9.62
2019-03-05T14:04:52.040Z,9.11
2019-03-05T14:07:26.461Z,8.94
2019-03-05T14:09:55.190Z,9.03
2019-03-05T14:12:23.813Z,9.07
2019-03-05T14:14:52.214Z,8.78
2019-03-05T14:17:22.345Z,8.56
2019-03-05T14:19:50.984Z,8.97
2019-03-05T14:22:20.398Z,8.97
2019-03-05T14:25:01.032Z,9.34
2019-03-05T14:27:20.040Z,9.45
2019-03-05T14:29:49.248Z,9.75
2019-03-05T14:32:18.142Z,9.65
2019-03-05T14:34:49.765Z,9.83
2019-03-05T14:37:18.468Z,9.95
2019-03-05T14:39:47.173Z,10.35
2019-03-05T14:42:15.864Z,11.01
2019-03-05T14:44:44.565Z,12.52
2019-03-05T14:47:13.213Z,12.49
2019-03-05T14:49:41.796Z,13.15
2019-03-05T14:52:10.379Z,12.41
2019-03-05T14:54:39.275Z,12.55
2019-03-05T14:57:08.010Z,13.56
2019-03-05T14:59:36.951Z,14.33
2019-03-05T15:02:05.846Z,15.18
2019-03-05T15:04:34.561Z,15.08
2019-03-05T15:07:04.676Z,13.53
2019-03-05T15:09:33.518Z,12.68
2019-03-05T15:12:02.082Z,10.99
2019-03-05T15:14:30.806Z,10.39
2019-03-05T15:16:59.537Z,9.84
2019-03-05T15:19:28.156Z,9.57
2019-03-05T15:21:56.781Z,9.21
2019-03-05T15:24:25.471Z,8.97
2019-03-05T15:26:54.035Z,8.80
2019-03-05T15:29:22.713Z,8.79
2019-03-05T15:31:51.357Z,8.54
2019-03-05T15:34:19.833Z,8.46
2019-03-05T15:36:51.938Z,8.33
2019-03-05T15:39:19.030Z,8.10
2019-03-05T15:41:47.700Z,7.97
2019-03-05T15:44:16.314Z,8.00
2019-03-05T15:46:50.276Z,7.95
2019-03-05T15:49:18.979Z,7.66
2019-03-05T15:51:47.664Z,7.66
2019-03-05T15:54:16.578Z,7.56
2019-03-05T15:56:45.187Z,7.63
2019-03-05T15:59:13.831Z,7.24
2019-03-05T16:01:42.482Z,7.13
2019-03-05T16:04:11.093Z,7.23
2019-03-05T16:06:39.650Z,7.11
2019-03-05T16:09:16.055Z,7.13
2019-03-05T16:11:44.503Z,7.13
2019-03-05T16:14:13.126Z,7.22
2019-03-05T16:16:41.877Z,7.17
2019-03-05T16:19:12.482Z,7.00
2019-03-05T16:21:41.519Z,7.00
2019-03-05T16:24:11.313Z,7.12
2019-03-05T16:26:51.216Z,7.37
2019-03-05T16:29:20.855Z,7.22
2019-03-05T16:31:57.276Z,7.20
2019-03-05T16:34:33.289Z,7.12
2019-03-05T16:37:05.669Z,7.04
2019-03-05T16:39:50.564Z,7.03
2019-03-05T16:42:23.766Z,6.87
2019-03-05T16:44:53.863Z,6.81
2019-03-05T16:47:30.070Z,6.57
2019-03-05T16:50:16.446Z,6.41
2019-03-05T16:52:49.380Z,6.47
2019-03-05T16:55:35.874Z,6.56
2019-03-05T16:58:14.553Z,6.50
2019-03-05T17:01:00.964Z,6.63
2019-03-05T17:03:39.987Z,6.67
2019-03-05T17:06:24.912Z,6.53
2019-03-05T17:08:58.093Z,6.61
2019-03-05T17:11:31.335Z,6.67
2019-03-05T17:14:00.002Z,6.72
2019-03-05T17:16:28.562Z,6.60
2019-03-05T17:18:57.020Z,6.68
2019-03-05T17:21:27.831Z,6.71
2019-03-05T17:23:55.922Z,6.68
2019-03-05T17:26:24.575Z,6.67
2019-03-05T17:28:53.272Z,6.69
2019-03-05T17:31:22.021Z,6.69
2019-03-05T17:33:50.643Z,6.66
2019-03-05T17:36:21.205Z,6.67
2019-03-05T17:38:49.834Z,6.60
2019-03-05T17:41:18.481Z,6.45
2019-03-05T17:43:47.182Z,6.47
2019-03-05T17:46:16.076Z,6.44
2019-03-05T17:48:44.677Z,6.42
2019-03-05T17:51:13.553Z,6.35
2019-03-05T17:53:42.251Z,6.32
2019-03-05T17:56:11.229Z,6.23
2019-03-05T17:58:39.803Z,6.05
2019-03-05T18:01:09.246Z,6.04
2019-03-05T18:03:38.160Z,5.80
2019-03-05T18:06:06.952Z,5.79
2019-03-05T18:08:35.701Z,5.80
2019-03-05T18:11:04.331Z,5.79
2019-03-05T18:13:32.946Z,5.69
2019-03-05T18:16:02.059Z,5.74
2019-03-05T18:18:31.165Z,5.71
2019-03-05T18:20:59.826Z,5.75
2019-03-05T18:23:28.398Z,5.81
2019-03-05T18:25:56.957Z,5.87
2019-03-05T18:28:25.749Z,5.85
2019-03-05T18:30:54.609Z,5.86
2019-03-05T18:33:23.321Z,5.89
2019-03-05T18:35:51.990Z,5.84
2019-03-05T18:38:20.598Z,5.89
2019-03-05T18:40:49.465Z,5.84
2019-03-05T18:43:18.638Z,5.91
2019-03-05T18:45:47.247Z,5.76
2019-03-05T18:48:15.910Z,5.84
2019-03-05T18:50:44.717Z,5.84
2019-03-05T18:53:13.839Z,5.84
2019-03-05T18:55:42.499Z,5.92
2019-03-05T18:58:12.166Z,5.84
2019-03-05T19:00:40.806Z,5.93
2019-03-05T19:03:12.298Z,6.00
2019-03-05T19:05:41.006Z,5.98
2019-03-05T19:08:09.676Z,5.99
2019-03-05T19:10:38.316Z,5.97
2019-03-05T19:13:06.948Z,5.94
2019-03-05T19:15:36.233Z,5.99
2019-03-05T19:18:05.865Z,5.97
2019-03-05T19:20:34.630Z,6.00
2019-03-05T19:23:03.378Z,5.97
2019-03-05T19:25:33.887Z,5.84
2019-03-05T19:28:02.715Z,5.82
2019-03-05T19:30:39.070Z,5.87
2019-03-05T19:33:07.808Z,5.82
2019-03-05T19:35:36.516Z,5.79
2019-03-05T19:38:05.349Z,5.82
2019-03-05T19:40:45.487Z,5.77
2019-03-05T19:43:14.119Z,5.81
2019-03-05T19:45:42.662Z,5.72
2019-03-05T19:48:11.376Z,5.70
2019-03-05T19:50:39.927Z,5.66
2019-03-05T19:53:08.541Z,5.67
2019-03-05T19:55:37.046Z,5.59
2019-03-05T19:58:08.629Z,5.54
2019-03-05T20:00:46.176Z,5.51
2019-03-05T20:03:23.858Z,5.50
2019-03-05T20:05:52.588Z,5.50
2019-03-05T20:08:21.296Z,5.45
2019-03-05T20:10:50.180Z,5.53
2019-03-05T20:13:18.811Z,5.54
2019-03-05T20:15:47.557Z,5.56
2019-03-05T20:18:16.259Z,5.52
2019-03-05T20:20:44.846Z,5.41
2019-03-05T20:23:13.434Z,5.40
2019-03-05T20:25:42.216Z,5.37
2019-03-05T20:28:10.921Z,5.38
2019-03-05T20:30:39.500Z,5.41
2019-03-05T20:33:08.514Z,5.40
2019-03-05T20:35:37.078Z,5.27
2019-03-05T20:38:06.165Z,5.33
2019-03-05T20:40:34.738Z,5.29
2019-03-05T20:43:03.945Z,5.32
2019-03-05T20:45:44.273Z,5.31
2019-03-05T20:48:12.976Z,5.27
2019-03-05T20:50:41.544Z,5.24
2019-03-05T20:53:10.433Z,5.13
2019-03-05T20:55:39.069Z,5.16
2019-03-05T20:58:07.694Z,5.18
2019-03-05T21:00:37.560Z,5.14
2019-03-05T21:03:12.800Z,5.14
2019-03-05T21:05:44.996Z,5.18
2019-03-05T21:08:15.344Z,5.21
2019-03-05T21:10:43.868Z,5.13
2019-03-05T21:13:12.727Z,5.07
2019-03-05T21:15:41.668Z,5.12
2019-03-05T21:18:14.669Z,5.08
2019-03-05T21:20:43.246Z,5.09
2019-03-05T21:23:12.243Z,5.10
2019-03-05T21:25:40.931Z,5.14
2019-03-05T21:28:09.521Z,5.14
2019-03-05T21:30:38.164Z,5.17
2019-03-05T21:33:07.007Z,5.16
2019-03-05T21:35:35.559Z,5.16
2019-03-05T21:38:04.131Z,5.06
2019-03-05T21:40:33.385Z,5.10
2019-03-05T21:43:02.000Z,5.09
2019-03-05T21:45:36.265Z,5.13
2019-03-05T21:48:05.751Z,5.13
2019-03-05T21:50:34.377Z,5.09
2019-03-05T21:53:03.247Z,5.14
2019-03-05T21:55:31.902Z,5.17
2019-03-05T21:58:00.452Z,5.17
2019-03-05T22:00:33.620Z,5.21
2019-03-05T22:03:02.885Z,5.21
2019-03-05T22:05:31.609Z,5.08
2019-03-05T22:08:00.185Z,5.07
2019-03-05T22:10:28.728Z,5.07
2019-03-05T22:12:57.226Z,5.05
2019-03-05T22:15:31.108Z,5.02
2019-03-05T22:17:59.682Z,5.02
2019-03-05T22:20:28.226Z,4.96
2019-03-05T22:22:57.119Z,4.93
2019-03-05T22:25:29.210Z,4.90
2019-03-05T22:27:58.211Z,4.78
2019-03-05T22:30:32.122Z,4.75
2019-03-05T22:33:00.921Z,4.77
2019-03-05T22:35:29.531Z,4.73
2019-03-05T22:37:58.167Z,4.72
2019-03-05T22:40:27.622Z,4.79
2019-03-05T22:42:56.388Z,4.73
2019-03-05T22:45:30.067Z,4.71
2019-03-05T22:47:58.717Z,4.76
2019-03-05T22:50:27.399Z,4.65
2019-03-05T22:52:55.969Z,4.68
2019-03-05T22:55:24.724Z,4.72
2019-03-05T22:57:53.455Z,4.71
2019-03-05T23:00:51.724Z,4.65
2019-03-05T23:03:23.117Z,4.59
2019-03-05T23:05:51.873Z,4.56
2019-03-05T23:08:21.847Z,4.51
2019-03-05T23:10:50.737Z,4.56
2019-03-05T23:13:21.876Z,4.46
2019-03-05T23:15:50.589Z,4.45
2019-03-05T23:18:19.483Z,4.39
2019-03-05T23:20:48.127Z,4.43
2019-03-05T23:23:16.851Z,4.40
2019-03-05T23:25:45.527Z,4.38
2019-03-05T23:28:14.198Z,4.40
2019-03-05T23:30:42.776Z,4.35
2019-03-05T23:33:11.426Z,4.36
2019-03-05T23:35:39.909Z,4.37
2019-03-05T23:38:08.490Z,4.33
2019-03-05T23:40:37.051Z,4.33
2019-03-05T23:43:05.871Z,4.35
2019-03-05T23:45:34.620Z,4.19
2019-03-05T23:48:03.135Z,4.19
2019-03-05T23:50:31.693Z,4.18
2019-03-05T23:53:00.341Z,4.21
2019-03-05T23:55:29.304Z,4.17
2019-03-05T23:57:57.957Z,4.15
